Time;durP1;ratioP1;P1;durP2;ratioP2;P2;SDS_P1;SDS_P2;PMS_P1;PMS_P2;Temp;Humidity;BMP_temperature;BMP_pressure;BME280_temperature;BME280_humidity;BME280_pressure;Samples;Min_cycle;Max_cycle;Signal;HPM_P1;HPM_P2
2023/03/22 00:02:24;;;;;;;4.77;4.47;;;;;;;10.59;92.06;96558.59;5079917;28;20242;-78
2023/03/22 00:04:50;;;;;;;6.30;5.70;;;;;;;10.58;92.60;96557.03;5077631;28;20187;-78
2023/03/22 00:07:16;;;;;;;6.80;6.23;;;;;;;10.55;92.71;96557.47;5085820;28;20264;-78
2023/03/22 00:09:41;;;;;;;7.90;7.20;;;;;;;10.48;93.50;96561.25;5057801;28;20276;-77
2023/03/22 00:12:07;;;;;;;6.03;5.50;;;;;;;10.50;93.24;96551.31;5092717;28;20257;-77
2023/03/22 00:14:32;;;;;;;6.50;5.87;;;;;;;10.46;93.67;96553.63;5066383;28;20176;-77
2023/03/22 00:16:57;;;;;;;7.30;6.70;;;;;;;10.48;93.78;96550.78;5092790;28;20607;-77
2023/03/22 00:19:23;;;;;;;8.50;7.03;;;;;;;10.39;94.76;96553.75;5076444;28;20263;-77
2023/03/22 00:21:50;;;;;;;7.13;6.63;;;;;;;10.40;95.17;96549.31;5091331;28;20260;-78
2023/03/22 00:24:15;;;;;;;7.10;6.50;;;;;;;10.37;95.04;96547.13;5095663;28;20532;-77
2023/03/22 00:26:40;;;;;;;6.20;5.77;;;;;;;10.37;95.48;96544.50;5082145;28;20282;-77
2023/03/22 00:29:06;;;;;;;6.77;6.17;;;;;;;10.40;95.28;96547.47;5074674;28;20189;-77
2023/03/22 00:31:31;;;;;;;7.00;6.30;;;;;;;10.35;95.38;96547.38;5073280;28;20242;-77
2023/03/22 00:33:57;;;;;;;7.13;6.63;;;;;;;10.35;95.76;96544.75;5073155;28;20193;-77
2023/03/22 00:36:22;;;;;;;6.17;5.60;;;;;;;10.37;95.31;96540.06;5073781;28;20642;-77
2023/03/22 00:38:47;;;;;;;5.77;5.37;;;;;;;10.46;95.18;96544.97;5054692;28;20255;-78
2023/03/22 00:41:22;;;;;;;6.40;5.90;;;;;;;10.38;94.99;96536.44;5071389;28;20193;-77
2023/03/22 00:43:49;;;;;;;6.63;6.03;;;;;;;10.28;95.71;96532.81;5066699;28;20177;-78
2023/03/22 00:46:16;;;;;;;7.03;6.53;;;;;;;10.24;95.89;96537.72;5059211;28;20194;-78
2023/03/22 00:48:42;;;;;;;6.33;5.83;;;;;;;10.25;96.03;96535.91;5054862;28;20292;-78
2023/03/22 00:51:08;;;;;;;6.20;5.70;;;;;;;10.22;96.11;96531.91;5054882;28;20185;-78
2023/03/22 00:53:35;;;;;;;6.07;5.57;;;;;;;10.28;96.06;96527.56;5063901;28;20211;-78
2023/03/22 00:56:01;;;;;;;6.07;5.47;;;;;;;10.37;95.61;96523.56;5044907;28;20239;-78
2023/03/22 00:58:26;;;;;;;5.63;5.23;;;;;;;10.40;94.88;96520.50;5054532;28;20178;-78
2023/03/22 01:00:51;;;;;;;6.30;5.90;;;;;;;10.44;94.31;96516.38;5054877;28;20190;-78
2023/03/22 01:03:17;;;;;;;6.17;5.60;;;;;;;10.54;93.52;96521.00;5061827;28;20527;-78
2023/03/22 01:05:45;;;;;;;6.50;5.90;;;;;;;10.52;93.73;96516.00;5065316;28;20186;-78
2023/03/22 01:08:11;;;;;;;6.97;6.47;;;;;;;10.40;94.07;96525.72;5054817;28;20189;-78
2023/03/22 01:10:38;;;;;;;7.57;7.07;;;;;;;10.32;94.50;96520.84;5054755;28;20581;-78
2023/03/22 01:13:04;;;;;;;6.93;6.43;;;;;;;10.20;95.90;96512.19;5062120;28;20215;-78
2023/03/22 01:15:30;;;;;;;7.50;6.97;;;;;;;10.21;95.57;96509.34;5074059;28;20335;-79
2023/03/22 01:17:56;;;;;;;7.00;6.50;;;;;;;10.22;95.42;96508.34;5074066;28;20193;-78
2023/03/22 01:20:22;;;;;;;6.73;6.23;;;;;;;10.15;95.95;96498.97;5073704;28;20197;-78
2023/03/22 01:22:48;;;;;;;6.23;5.83;;;;;;;10.19;95.99;96503.56;5072417;28;20201;-78
2023/03/22 01:25:13;;;;;;;6.07;5.60;;;;;;;10.15;96.15;96498.97;5060164;28;20221;-78
2023/03/22 01:27:39;;;;;;;5.97;5.50;;;;;;;10.15;96.19;96488.50;5073924;28;20575;-79
2023/03/22 01:30:06;;;;;;;6.17;5.77;;;;;;;10.12;96.26;96494.19;5074783;28;20193;-78
2023/03/22 01:32:32;;;;;;;6.77;6.30;;;;;;;9.97;97.02;96490.22;5056088;28;20185;-78
2023/03/22 01:34:57;;;;;;;6.43;5.93;;;;;;;9.96;97.40;96493.88;5082009;28;20280;-78
2023/03/22 01:37:26;;;;;;;7.13;6.67;;;;;;;10.01;97.14;96482.72;5073633;28;20205;-79
2023/03/22 01:39:52;;;;;;;6.60;6.00;;;;;;;9.94;96.90;96474.97;5073926;28;20213;-78
2023/03/22 01:42:19;;;;;;;7.53;6.87;;;;;;;9.92;97.45;96484.09;5073839;28;20576;-78
2023/03/22 01:45:13;;;;;;;7.60;6.90;;;;;;;9.79;98.33;96477.28;5073748;28;20660;-78
2023/03/22 01:47:53;;;;;;;9.07;8.53;;;;;;;9.76;99.03;96475.09;5093239;28;20188;-78
2023/03/22 01:50:19;;;;;;;11.07;10.37;;;;;;;9.72;99.15;96475.81;5059435;28;20205;-79
2023/03/22 01:52:45;;;;;;;10.07;9.47;;;;;;;9.61;99.25;96474.78;5073697;28;20216;-78
2023/03/22 01:55:11;;;;;;;9.10;8.53;;;;;;;9.69;99.26;96468.41;5093711;28;20267;-78
2023/03/22 01:57:38;;;;;;;7.73;7.13;;;;;;;9.62;99.87;96462.50;5093446;28;20188;-78
2023/03/22 02:00:14;;;;;;;7.67;7.17;;;;;;;9.55;100.00;96458.19;5088990;28;20193;-78
2023/03/22 02:02:42;;;;;;;7.60;6.47;;;;;;;9.49;100.00;96473.97;5073883;28;20173;-79
2023/03/22 02:05:08;;;;;;;7.43;6.80;;;;;;;9.53;100.00;96472.50;5093254;28;20270;-78
2023/03/22 02:07:36;;;;;;;6.20;5.90;;;;;;;9.44;100.00;96469.44;5078115;28;20196;-78
2023/03/22 02:10:02;;;;;;;6.13;5.63;;;;;;;9.47;100.00;96468.19;5074124;28;20192;-78
2023/03/22 02:12:47;;;;;;;6.30;5.70;;;;;;;9.53;100.00;96459.41;5055424;28;20181;-78
2023/03/22 02:15:27;;;;;;;7.53;5.40;;;;;;;9.59;100.00;96459.31;5073468;28;20165;-78
2023/03/22 02:18:05;;;;;;;6.07;5.57;;;;;;;9.58;100.00;96460.31;5073346;28;20180;-78
2023/03/22 02:20:57;;;;;;;5.70;5.30;;;;;;;9.59;100.00;96453.28;5079073;28;20192;-78
2023/03/22 02:23:59;;;;;;;5.90;5.47;;;;;;;9.49;100.00;96445.19;5083841;28;20182;-79
2023/03/22 02:26:48;;;;;;;6.50;5.90;;;;;;;9.38;100.00;96449.41;5089460;28;20231;-79
2023/03/22 02:29:37;;;;;;;5.80;5.33;;;;;;;9.45;100.00;96441.47;5091874;28;20234;-79
2023/03/22 02:32:11;;;;;;;5.90;5.50;;;;;;;9.54;100.00;96442.69;5073435;28;20714;-77
2023/03/22 02:34:58;;;;;;;6.57;6.07;;;;;;;9.44;100.00;96440.66;5091657;28;20196;-78
2023/03/22 02:37:45;;;;;;;6.00;5.43;;;;;;;9.47;100.00;96452.50;5091245;28;20725;-78
2023/03/22 02:40:29;;;;;;;5.73;5.23;;;;;;;9.37;100.00;96447.00;5074858;28;20200;-78
2023/03/22 02:43:29;;;;;;;6.17;5.53;;;;;;;9.32;100.00;96444.28;5065267;28;20201;-78
2023/03/22 02:46:06;;;;;;;6.07;5.47;;;;;;;9.29;100.00;96447.38;5080341;28;20205;-77
2023/03/22 02:48:41;;;;;;;6.37;5.93;;;;;;;9.31;100.00;96445.31;5073182;28;20630;-78
2023/03/22 02:51:21;;;;;;;5.57;5.17;;;;;;;9.24;100.00;96439.41;5073157;28;20169;-78
2023/03/22 02:53:54;;;;;;;6.87;5.73;;;;;;;9.30;100.00;96438.50;5083644;28;20202;-78
2023/03/22 02:56:29;;;;;;;6.10;5.70;;;;;;;9.29;100.00;96440.31;5092892;28;20176;-77
2023/03/22 02:59:02;;;;;;;5.47;5.03;;;;;;;9.23;100.00;96443.03;5093285;28;20236;-77
2023/03/22 03:01:42;;;;;;;5.73;5.23;;;;;;;9.08;100.00;96439.03;5089684;28;20660;-77
2023/03/22 03:04:15;;;;;;;6.33;5.83;;;;;;;9.12;100.00;96442.81;5087660;28;20173;-78
2023/03/22 03:06:47;;;;;;;6.33;5.67;;;;;;;9.16;100.00;96440.53;5079446;28;20631;-77
2023/03/22 03:09:16;;;;;;;6.40;5.87;;;;;;;9.17;100.00;96442.91;5079417;28;20177;-78
2023/03/22 03:11:45;;;;;;;6.57;6.00;;;;;;;9.22;100.00;96442.25;5096217;28;20184;-78
2023/03/22 03:14:22;;;;;;;5.47;5.17;;;;;;;9.04;100.00;96442.31;5099481;28;20212;-78
2023/03/22 03:17:02;;;;;;;6.43;6.03;;;;;;;8.98;100.00;96438.00;5099299;28;20186;-77
2023/03/22 03:19:37;;;;;;;6.23;5.83;;;;;;;8.94;100.00;96437.66;5094925;28;20184;-77
2023/03/22 03:22:23;;;;;;;6.67;6.00;;;;;;;8.98;100.00;96440.59;5099277;28;20225;-78
2023/03/22 03:25:01;;;;;;;7.37;5.67;;;;;;;9.03;100.00;96441.53;5099464;28;20199;-78
2023/03/22 03:27:56;;;;;;;5.70;5.20;;;;;;;8.97;100.00;96447.66;5079313;28;20216;-78
2023/03/22 03:30:32;;;;;;;5.83;5.33;;;;;;;8.94;100.00;96439.47;5073170;28;20763;-77
2023/03/22 03:33:10;;;;;;;6.30;5.70;;;;;;;9.03;100.00;96451.19;5079503;28;20211;-78
2023/03/22 03:35:47;;;;;;;6.30;5.70;;;;;;;8.99;100.00;96447.44;5063815;28;20626;-78
2023/03/22 03:38:17;;;;;;;6.17;5.70;;;;;;;8.92;100.00;96450.13;5088191;28;20200;-78
2023/03/22 03:40:53;;;;;;;5.80;5.43;;;;;;;8.93;100.00;96445.72;5085902;28;20261;-77
2023/03/22 03:43:19;;;;;;;6.00;5.60;;;;;;;8.92;100.00;96437.06;5077755;28;20314;-78
2023/03/22 03:45:45;;;;;;;6.30;5.80;;;;;;;8.89;100.00;96440.16;5079812;28;20212;-77
2023/03/22 03:48:17;;;;;;;5.90;5.50;;;;;;;8.89;100.00;96439.34;5092440;28;20231;-77
2023/03/22 03:50:43;;;;;;;6.50;5.93;;;;;;;8.93;100.00;96449.13;5079259;28;20177;-78
2023/03/22 03:53:09;;;;;;;8.17;6.43;;;;;;;8.88;100.00;96451.59;5078772;28;20193;-78
2023/03/22 03:55:35;;;;;;;7.30;6.63;;;;;;;8.90;100.00;96449.59;5078870;28;20182;-78
2023/03/22 03:58:00;;;;;;;5.87;5.47;;;;;;;8.89;100.00;96450.59;5098988;28;20185;-78
2023/03/22 04:00:25;;;;;;;6.67;6.17;;;;;;;8.93;100.00;96451.72;5097957;28;20208;-78
2023/03/22 04:02:51;;;;;;;5.93;5.53;;;;;;;8.87;100.00;96451.81;5098856;28;20181;-78
2023/03/22 04:05:17;;;;;;;6.10;5.70;;;;;;;8.87;99.75;96455.25;5098077;28;20184;-77
2023/03/22 04:07:42;;;;;;;7.00;6.43;;;;;;;8.82;100.00;96457.72;5078888;28;20653;-78
2023/03/22 04:10:08;;;;;;;6.10;5.50;;;;;;;8.86;100.00;96456.25;5078983;28;20208;-77
2023/03/22 04:12:33;;;;;;;7.07;6.47;;;;;;;8.83;99.89;96456.72;5088462;28;20180;-77
2023/03/22 04:14:59;;;;;;;6.93;6.33;;;;;;;8.76;100.00;96453.38;5096188;28;20694;-78
2023/03/22 04:17:28;;;;;;;7.03;6.43;;;;;;;8.79;100.00;96454.78;5077655;28;20184;-77
2023/03/22 04:19:55;;;;;;;6.77;6.23;;;;;;;8.75;100.00;96457.81;5075276;28;20210;-77
2023/03/22 04:22:25;;;;;;;7.67;7.10;;;;;;;8.73;100.00;96457.25;5084385;28;20177;-77
2023/03/22 04:24:50;;;;;;;6.47;5.83;;;;;;;8.72;100.00;96450.44;5095363;28;20187;-78
2023/03/22 04:27:17;;;;;;;7.03;6.53;;;;;;;8.70;100.00;96449.84;5094789;28;20224;-78
2023/03/22 04:29:47;;;;;;;6.80;6.10;;;;;;;8.65;100.00;96444.50;5065133;28;20188;-78
2023/03/22 04:32:15;;;;;;;6.90;6.27;;;;;;;8.68;100.00;96445.88;5076477;28;20234;-78
2023/03/22 04:34:41;;;;;;;7.30;6.70;;;;;;;8.52;100.00;96446.50;5075041;28;20188;-78
2023/03/22 04:37:06;;;;;;;6.97;6.47;;;;;;;8.50;100.00;96444.13;5075203;28;20181;-78
2023/03/22 04:39:32;;;;;;;7.40;6.80;;;;;;;8.55;100.00;96448.66;5056964;28;20213;-78
2023/03/22 04:41:57;;;;;;;8.47;7.87;;;;;;;8.52;100.00;96446.50;5078793;28;20203;-78
2023/03/22 04:44:23;;;;;;;8.40;7.60;;;;;;;8.52;100.00;96438.69;5086909;28;20177;-78
2023/03/22 04:46:48;;;;;;;8.20;7.50;;;;;;;8.47;100.00;96436.72;5071798;28;20181;-78
2023/03/22 04:49:13;;;;;;;6.67;6.07;;;;;;;8.48;100.00;96437.50;5094545;28;20185;-78
2023/03/22 04:51:39;;;;;;;6.80;6.30;;;;;;;8.42;100.00;96431.34;5092922;28;20268;-78
2023/03/22 04:54:04;;;;;;;6.90;6.40;;;;;;;8.40;100.00;96433.41;5087824;28;20181;-78
2023/03/22 04:56:30;;;;;;;8.63;6.80;;;;;;;8.38;100.00;96427.59;5094258;28;20271;-78
2023/03/22 04:58:55;;;;;;;7.37;6.40;;;;;;;8.37;100.00;96433.84;5082835;28;20266;-78
2023/03/22 05:01:20;;;;;;;7.47;6.87;;;;;;;8.24;100.00;96429.56;5073814;28;20178;-78
2023/03/22 05:03:46;;;;;;;6.77;6.17;;;;;;;8.29;100.00;96426.28;5079442;28;20184;-77
2023/03/22 05:06:11;;;;;;;6.83;6.27;;;;;;;8.25;100.00;96415.47;5093590;28;20208;-78
2023/03/22 05:08:37;;;;;;;6.80;6.27;;;;;;;8.25;100.00;96418.09;5093823;28;20633;-77
2023/03/22 05:11:15;;;;;;;6.33;5.80;;;;;;;8.27;100.00;96404.81;5092795;28;20640;-78
2023/03/22 05:13:41;;;;;;;6.27;5.83;;;;;;;8.30;100.00;96402.59;5071308;28;20212;-78
2023/03/22 05:16:07;;;;;;;7.13;6.10;;;;;;;8.31;100.00;96398.97;5074582;28;20189;-78
2023/03/22 05:18:33;;;;;;;6.53;5.77;;;;;;;8.32;100.00;96410.19;5081526;28;20177;-79
2023/03/22 05:21:05;;;;;;;6.13;5.57;;;;;;;8.32;100.00;96404.97;5094446;28;20195;-78
2023/03/22 05:23:31;;;;;;;5.70;5.23;;;;;;;8.33;100.00;96414.41;5094023;28;20172;-77
2023/03/22 05:25:57;;;;;;;6.67;5.63;;;;;;;8.29;100.00;96410.63;5071849;28;20567;-78
2023/03/22 05:28:23;;;;;;;6.10;5.50;;;;;;;8.29;100.00;96408.81;5073564;28;20259;-78
2023/03/22 05:30:50;;;;;;;6.70;6.20;;;;;;;8.28;100.00;96415.06;5076696;28;20325;-78
2023/03/22 05:33:20;;;;;;;5.70;5.30;;;;;;;8.32;100.00;96412.81;5093618;28;20177;-78
2023/03/22 05:35:45;;;;;;;7.47;6.83;;;;;;;8.40;100.00;96411.72;5091553;28;20184;-77
2023/03/22 05:38:11;;;;;;;7.43;6.83;;;;;;;8.32;100.00;96404.97;5073568;28;20185;-78
2023/03/22 05:40:36;;;;;;;6.60;6.00;;;;;;;8.41;100.00;96414.13;5075778;28;20224;-78
2023/03/22 05:43:01;;;;;;;6.37;5.77;;;;;;;8.52;100.00;96413.34;5073973;28;20200;-78
2023/03/22 05:45:27;;;;;;;8.17;7.43;;;;;;;8.53;100.00;96419.34;5073951;28;20186;-78
2023/03/22 05:47:52;;;;;;;8.00;6.27;;;;;;;8.60;100.00;96413.03;5078823;28;20181;-78
2023/03/22 05:50:21;;;;;;;7.50;6.87;;;;;;;8.72;100.00;96413.06;5089064;28;20181;-77
2023/03/22 05:52:47;;;;;;;6.90;6.10;;;;;;;8.69;100.00;96409.06;5068856;28;20188;-78
2023/03/22 05:55:16;;;;;;;7.90;7.37;;;;;;;8.77;100.00;96418.41;5093416;28;20189;-78
2023/03/22 05:57:42;;;;;;;6.67;6.10;;;;;;;8.90;100.00;96414.81;5093108;28;20181;-78
2023/03/22 06:00:12;;;;;;;6.57;5.83;;;;;;;8.97;100.00;96412.91;5092812;28;20208;-78
2023/03/22 06:02:48;;;;;;;6.70;6.10;;;;;;;8.78;100.00;96412.16;5093173;28;20188;-78
2023/03/22 06:05:15;;;;;;;8.70;7.87;;;;;;;8.76;100.00;96408.97;5092964;28;20172;-78
2023/03/22 06:07:41;;;;;;;7.20;6.43;;;;;;;8.82;100.00;96410.69;5091249;28;20237;-78
2023/03/22 06:10:11;;;;;;;8.53;7.83;;;;;;;8.81;100.00;96414.31;5079575;28;20250;-78
2023/03/22 06:12:36;;;;;;;8.90;8.00;;;;;;;8.98;100.00;96414.47;5073605;28;20185;-79
2023/03/22 06:15:03;;;;;;;7.53;6.93;;;;;;;9.24;99.39;96427.13;5093265;28;20188;-79
2023/03/22 06:17:29;;;;;;;7.10;6.50;;;;;;;9.31;97.85;96416.53;5080603;28;20185;-78
2023/03/22 06:19:54;;;;;;;6.37;5.70;;;;;;;9.44;96.50;96416.31;5086655;28;20197;-79
2023/03/22 06:22:21;;;;;;;5.77;5.17;;;;;;;9.56;95.44;96420.53;5076394;28;20177;-79
2023/03/22 06:24:47;;;;;;;4.77;4.40;;;;;;;9.69;94.19;96419.50;5073374;28;20329;-79
2023/03/22 06:27:12;;;;;;;6.03;4.60;;;;;;;9.88;92.53;96423.56;5082519;28;20676;-79
2023/03/22 06:29:38;;;;;;;7.63;7.13;;;;;;;10.09;91.26;96422.13;5090406;28;20536;-79
2023/03/22 06:32:03;;;;;;;6.60;6.20;;;;;;;10.15;90.37;96426.44;5092626;28;20184;-79
2023/03/22 06:34:29;;;;;;;5.97;5.37;;;;;;;10.41;88.46;96428.56;5078482;28;20173;-79
2023/03/22 06:36:54;;;;;;;5.03;4.57;;;;;;;10.68;86.92;96436.66;5072806;28;20661;-79
2023/03/22 06:39:20;;;;;;;6.67;5.63;;;;;;;10.83;85.49;96436.09;5072034;28;20241;-78
2023/03/22 06:41:46;;;;;;;16.97;15.73;;;;;;;10.86;84.64;96440.09;5072273;28;20185;-76
2023/03/22 06:44:12;;;;;;;5.10;4.70;;;;;;;10.84;84.39;96430.63;5090753;28;20188;-78
2023/03/22 06:46:38;;;;;;;11.07;8.60;;;;;;;10.87;84.18;96442.47;5083182;28;20192;-76
2023/03/22 06:49:03;;;;;;;11.07;10.30;;;;;;;11.16;82.58;96437.97;5072917;28;20237;-77
2023/03/22 06:51:29;;;;;;;14.63;13.60;;;;;;;11.35;80.97;96441.16;5072983;28;20188;-76
2023/03/22 06:53:55;;;;;;;26.00;24.27;;;;;;;11.41;80.45;96446.22;5078858;28;20641;-76
2023/03/22 06:56:20;;;;;;;21.90;20.30;;;;;;;11.36;80.24;96446.16;5092490;28;20255;-76
2023/03/22 06:58:46;;;;;;;18.97;17.87;;;;;;;11.34;80.27;96445.59;5081526;28;20186;-77
2023/03/22 07:01:11;;;;;;;10.57;9.90;;;;;;;11.47;79.68;96447.91;5071783;28;20225;-75
2023/03/22 07:03:37;;;;;;;9.70;9.00;;;;;;;11.46;80.20;96440.25;5057927;28;20184;-76
2023/03/22 07:06:04;;;;;;;8.73;8.23;;;;;;;11.73;78.08;96438.56;5072389;28;20300;-76
2023/03/22 07:08:30;;;;;;;17.20;15.40;;;;;;;11.79;77.04;96442.06;5056314;28;20646;-76
2023/03/22 07:10:55;;;;;;;40.63;38.47;;;;;;;11.79;76.33;96439.44;5075414;28;20208;-76
2023/03/22 07:13:21;;;;;;;31.40;29.50;;;;;;;12.04;75.12;96440.56;5082102;28;20218;-76
2023/03/22 07:15:46;;;;;;;15.40;14.33;;;;;;;12.06;74.65;96445.56;5074341;28;20172;-76
2023/03/22 07:18:11;;;;;;;7.67;7.17;;;;;;;12.28;73.50;96441.13;5074709;28;20540;-76
2023/03/22 07:20:40;;;;;;;7.37;6.97;;;;;;;12.33;72.95;96440.38;5071552;28;20689;-75
2023/03/22 07:23:05;;;;;;;13.53;12.73;;;;;;;12.32;72.27;96439.56;5079510;28;20177;-75
2023/03/22 07:25:31;;;;;;;14.57;13.67;;;;;;;12.43;72.02;96433.38;5076921;28;20251;-75
2023/03/22 07:27:58;;;;;;;13.37;12.60;;;;;;;12.27;71.81;96436.88;5071385;28;20638;-75
2023/03/22 07:30:24;;;;;;;11.40;10.70;;;;;;;12.44;70.11;96442.88;5065018;28;20200;-75
2023/03/22 07:32:49;;;;;;;18.03;17.00;;;;;;;12.50;69.69;96438.47;5072201;28;20193;-75
2023/03/22 07:35:15;;;;;;;7.40;6.90;;;;;;;13.37;95.77;96440.06;5041172;28;20263;-71
2023/03/22 07:37:41;;;;;;;10.77;10.07;;;;;;;13.57;73.43;96434.94;5085043;28;20216;-74
2023/03/22 07:40:07;;;;;;;20.73;19.60;;;;;;;13.31;66.92;96437.41;5081335;28;20248;-75
2023/03/22 07:42:33;;;;;;;10.73;10.13;;;;;;;13.17;66.35;96435.44;5073560;28;20185;-76
2023/03/22 07:44:59;;;;;;;12.80;12.00;;;;;;;12.93;68.23;96441.00;5088674;28;20241;-75
2023/03/22 07:47:25;;;;;;;13.37;12.53;;;;;;;12.75;69.18;96440.56;5071078;28;20193;-75
2023/03/22 07:49:51;;;;;;;14.43;13.50;;;;;;;12.99;68.79;96441.03;5092314;28;20200;-75
2023/03/22 07:52:16;;;;;;;10.37;9.77;;;;;;;12.95;68.58;96437.31;5096419;28;20176;-76
2023/03/22 07:54:41;;;;;;;7.63;7.20;;;;;;;13.04;67.48;96435.84;5090818;28;20185;-76
2023/03/22 07:57:07;;;;;;;4.73;4.37;;;;;;;13.02;67.52;96440.53;5076195;28;20319;-75
2023/03/22 07:59:32;;;;;;;11.13;10.47;;;;;;;13.19;65.68;96444.69;5080860;28;20554;-75
2023/03/22 08:01:58;;;;;;;9.37;8.77;;;;;;;13.41;64.00;96449.84;5074051;28;20181;-75
2023/03/22 08:04:24;;;;;;;6.77;6.17;;;;;;;13.46;62.64;96447.25;5075530;28;20220;-76
2023/03/22 08:06:50;;;;;;;6.37;5.30;;;;;;;13.23;62.17;96448.38;5075948;28;20181;-76
2023/03/22 08:09:16;;;;;;;5.53;5.23;;;;;;;13.49;61.74;96448.56;5091237;28;20204;-75
2023/03/22 08:11:41;;;;;;;5.07;4.67;;;;;;;13.58;60.98;96445.22;5080870;28;20177;-75
2023/03/22 08:14:07;;;;;;;5.00;3.83;;;;;;;13.57;60.86;96451.53;5095470;28;20226;-75
2023/03/22 08:16:33;;;;;;;4.70;4.40;;;;;;;13.54;61.11;96454.66;5095658;28;20187;-75
2023/03/22 08:18:58;;;;;;;3.83;3.60;;;;;;;13.56;60.53;96454.41;5095143;28;20280;-73
2023/03/22 08:21:24;;;;;;;3.10;2.90;;;;;;;13.47;61.00;96459.38;5095394;28;20181;-75
2023/03/22 08:23:50;;;;;;;3.40;3.13;;;;;;;13.55;61.39;96460.72;5077240;28;20227;-76
2023/03/22 08:26:16;;;;;;;3.47;2.90;;;;;;;13.72;60.58;96459.53;5095285;28;20220;-76
2023/03/22 08:28:42;;;;;;;4.00;2.60;;;;;;;13.56;60.83;96457.84;5086356;28;20212;-75
2023/03/22 08:31:12;;;;;;;3.23;2.90;;;;;;;13.91;60.75;96451.22;5077244;28;20641;-76
2023/03/22 08:33:37;;;;;;;2.90;2.70;;;;;;;13.91;60.87;96452.00;5095332;28;20227;-76
2023/03/22 08:36:08;;;;;;;4.47;4.27;;;;;;;14.04;59.62;96445.50;5094826;28;20548;-76
2023/03/22 08:38:33;;;;;;;5.47;5.03;;;;;;;14.08;59.50;96444.72;5088886;28;20173;-75
2023/03/22 08:40:59;;;;;;;4.43;4.20;;;;;;;14.05;60.05;96450.47;5088135;28;20181;-75
2023/03/22 08:43:24;;;;;;;5.90;5.63;;;;;;;14.07;59.69;96431.78;5095163;28;20695;-75
2023/03/22 08:45:50;;;;;;;6.50;6.20;;;;;;;14.21;59.16;96442.66;5074882;28;20674;-76
2023/03/22 08:48:15;;;;;;;7.90;7.53;;;;;;;14.18;59.73;96438.69;5074689;28;20223;-75
2023/03/22 08:50:40;;;;;;;11.70;10.90;;;;;;;14.23;59.87;96443.19;5074612;28;20181;-75
2023/03/22 08:53:06;;;;;;;6.27;5.67;;;;;;;14.12;59.50;96440.50;5074423;28;20260;-76
2023/03/22 08:55:34;;;;;;;14.63;13.93;;;;;;;14.38;59.41;96435.34;5085654;28;20212;-74
2023/03/22 08:58:00;;;;;;;7.53;6.97;;;;;;;14.47;58.83;96431.19;5074373;28;20669;-75
2023/03/22 09:00:26;;;;;;;6.67;6.13;;;;;;;14.56;58.90;96432.25;5084034;28;20192;-75
2023/03/22 09:02:51;;;;;;;7.23;6.80;;;;;;;14.52;58.80;96434.63;5076619;28;20233;-75
2023/03/22 09:05:17;;;;;;;17.25;16.35;;;;;;;14.40;60.26;96430.63;5095066;28;20188;-75
2023/03/22 09:07:43;;;;;;;18.23;17.13;;;;;;;14.35;60.44;96423.47;5072276;28;20650;-75
2023/03/22 09:10:09;;;;;;;10.10;9.50;;;;;;;14.39;60.78;96423.75;5075669;28;20214;-75
2023/03/22 09:12:35;;;;;;;14.83;14.10;;;;;;;14.31;60.27;96421.59;5093720;28;20542;-75
2023/03/22 09:15:00;;;;;;;9.73;8.93;;;;;;;14.30;61.02;96417.38;5093775;28;20191;-75
2023/03/22 09:17:26;;;;;;;9.73;9.23;;;;;;;14.28;61.60;96420.28;5078060;28;20181;-75
2023/03/22 09:19:51;;;;;;;12.23;11.53;;;;;;;14.39;61.18;96431.66;5082698;28;20205;-75
2023/03/22 09:22:16;;;;;;;11.77;11.00;;;;;;;14.29;61.64;96416.59;5092429;28;20185;-75
2023/03/22 09:24:42;;;;;;;13.47;12.77;;;;;;;14.48;61.59;96419.59;5073774;28;20185;-76
2023/03/22 09:27:07;;;;;;;16.90;15.67;;;;;;;14.44;61.09;96424.56;5075354;28;20217;-75
2023/03/22 09:29:33;;;;;;;14.37;13.40;;;;;;;14.46;61.23;96411.94;5073491;28;20196;-75
2023/03/22 09:31:58;;;;;;;13.90;13.20;;;;;;;14.33;61.75;96419.50;5073406;28;20184;-75
2023/03/22 09:34:24;;;;;;;18.53;17.50;;;;;;;14.42;62.29;96408.22;5087840;28;20250;-75
2023/03/22 09:36:51;;;;;;;16.40;15.53;;;;;;;14.43;61.76;96407.16;5075600;28;20284;-75
2023/03/22 09:39:17;;;;;;;18.33;17.27;;;;;;;14.43;61.21;96404.53;5083561;28;20215;-75
2023/03/22 09:41:49;;;;;;;16.60;15.73;;;;;;;14.49;61.73;96400.84;5084841;28;20185;-75
2023/03/22 09:44:23;;;;;;;20.23;19.17;;;;;;;14.61;61.27;96405.09;5093767;28;20203;-75
2023/03/22 09:46:52;;;;;;;17.57;16.37;;;;;;;14.70;61.54;96404.34;5053769;28;20249;-75
2023/03/22 09:49:29;;;;;;;16.87;15.87;;;;;;;14.62;62.18;96399.56;5035868;28;20501;-75
2023/03/22 09:51:55;;;;;;;16.13;15.13;;;;;;;14.77;61.63;96391.66;5053660;28;20182;-76
2023/03/22 09:54:36;;;;;;;28.37;26.83;;;;;;;14.67;61.27;96402.22;5054041;28;20714;-74
2023/03/22 09:57:16;;;;;;;59.33;56.30;;;;;;;14.75;60.33;96393.00;5060604;28;20188;-74
2023/03/22 09:59:51;;;;;;;39.93;37.83;;;;;;;14.86;59.95;96390.09;5093025;28;20199;-76
2023/03/22 10:02:42;;;;;;;49.08;46.47;;;;;;;14.98;60.38;96392.50;5093408;28;20171;-74
2023/03/22 10:05:22;;;;;;;53.53;50.53;;;;;;;15.06;60.56;96384.03;5093644;28;20184;-74
2023/03/22 10:08:05;;;;;;;18.23;17.27;;;;;;;15.04;59.56;96374.81;5093390;28;20192;-74
2023/03/22 10:10:30;;;;;;;9.57;9.05;;;;;;;15.05;58.65;96377.16;5093150;28;20169;-75
2023/03/22 10:13:05;;;;;;;11.50;10.77;;;;;;;15.01;59.36;96370.03;5092411;28;20542;-75
2023/03/22 10:15:36;;;;;;;12.35;11.73;;;;;;;15.21;59.68;96362.88;5073474;28;20226;-75
2023/03/22 10:18:06;;;;;;;11.40;10.68;;;;;;;15.22;58.76;96367.13;5072817;28;20173;-76
2023/03/22 10:21:01;;;;;;;5.65;5.32;;;;;;;15.37;58.19;96353.13;5078169;28;20307;-77
2023/03/22 10:23:29;;;;;;;5.43;5.13;;;;;;;15.32;58.31;96359.19;5073016;28;20595;-74
2023/03/22 10:25:56;;;;;;;5.25;4.95;;;;;;;15.22;58.22;96356.56;5090165;28;20227;-75
2023/03/22 10:28:36;;;;;;;5.20;4.90;;;;;;;15.22;58.11;96353.13;5071938;28;20185;-74
2023/03/22 10:31:01;;;;;;;5.97;5.57;;;;;;;15.30;57.50;96340.19;5071786;28;20293;-78
2023/03/22 10:33:38;;;;;;;5.07;4.83;;;;;;;15.11;58.73;96349.72;5069797;28;20215;-75
2023/03/22 10:36:07;;;;;;;5.27;4.97;;;;;;;15.11;58.59;96341.78;5079151;28;20184;-75
2023/03/22 10:38:41;;;;;;;4.30;4.10;;;;;;;15.05;58.82;96339.41;5060449;28;20203;-75
2023/03/22 10:41:08;;;;;;;4.88;4.68;;;;;;;15.14;58.76;96351.84;5084823;28;20585;-75
2023/03/22 10:43:36;;;;;;;4.43;4.22;;;;;;;15.26;58.46;96344.44;5087204;28;20180;-78
2023/03/22 10:46:05;;;;;;;6.20;5.90;;;;;;;15.40;57.68;96342.81;5091051;28;20176;-74
2023/03/22 10:48:38;;;;;;;6.88;6.13;;;;;;;15.71;57.12;96345.41;5072603;28;20706;-74
2023/03/22 10:51:05;;;;;;;9.13;8.60;;;;;;;15.84;56.86;96341.38;5072123;28;20157;-75
2023/03/22 10:53:38;;;;;;;10.15;9.52;;;;;;;15.85;55.97;96335.03;5072245;28;20535;-75
2023/03/22 10:56:09;;;;;;;9.40;8.95;;;;;;;15.94;56.25;96336.06;5053755;28;20314;-75
2023/03/22 10:58:34;;;;;;;6.35;6.05;;;;;;;16.16;55.19;96341.78;5077200;28;20249;-74
2023/03/22 11:01:08;;;;;;;7.45;7.05;;;;;;;16.36;53.84;96328.44;5091894;28;20235;-75
2023/03/22 11:03:34;;;;;;;5.50;5.22;;;;;;;16.15;53.64;96321.69;5092672;28;20183;-76
2023/03/22 11:06:04;;;;;;;5.57;5.22;;;;;;;16.40;53.64;96318.09;5092820;28;20173;-75
2023/03/22 11:09:00;;;;;;;9.80;9.32;;;;;;;16.20;53.61;96309.22;5093233;28;20763;-75
2023/03/22 11:11:25;;;;;;;10.02;9.40;;;;;;;16.51;53.61;96319.59;5079260;28;20188;-74
2023/03/22 11:14:14;;;;;;;28.10;26.67;;;;;;;16.51;52.67;96323.03;5086427;28;20185;-74
2023/03/22 11:16:46;;;;;;;26.77;25.27;;;;;;;16.83;51.99;96319.91;5089524;28;20648;-76
2023/03/22 11:19:20;;;;;;;13.48;12.82;;;;;;;16.79;51.79;96318.88;5084907;28;20681;-75
2023/03/22 11:21:46;;;;;;;12.90;12.25;;;;;;;17.04;51.67;96316.03;5072164;28;20211;-74
2023/03/22 11:24:14;;;;;;;37.35;35.47;;;;;;;17.09;50.75;96325.00;5073845;28;20236;-75
2023/03/22 11:26:40;;;;;;;17.30;16.42;;;;;;;17.17;49.06;96324.38;5093907;28;20224;-74
2023/03/22 11:29:16;;;;;;;20.45;19.42;;;;;;;16.97;48.06;96320.06;5083871;28;20193;-75
2023/03/22 11:31:59;;;;;;;14.32;13.57;;;;;;;16.72;48.57;96312.34;5058444;28;20565;-74
2023/03/22 11:34:27;;;;;;;15.80;14.98;;;;;;;16.89;48.81;96304.78;5082974;28;20206;-74
2023/03/22 11:36:55;;;;;;;25.92;24.60;;;;;;;17.08;48.20;96300.38;5086304;28;20218;-73
2023/03/22 11:39:24;;;;;;;37.85;35.88;;;;;;;17.17;46.93;96306.63;5076078;28;20205;-75